sensor_id;sensor_type;location;lat;lon;timestamp;P1;durP1;ratioP1;P2;durP2;ratioP2
62990;SDS011;49084;48.204;16.202;2022-08-19T00:01:21;4.13;;;2.28;;
62990;SDS011;49084;48.204;16.202;2022-08-19T00:03:47;6.93;;;2.72;;
62990;SDS011;49084;48.204;16.202;2022-08-19T00:06:13;12.15;;;2.60;;
62990;SDS011;49084;48.204;16.202;2022-08-19T00:08:39;8.40;;;2.53;;
62990;SDS011;49084;48.204;16.202;2022-08-19T00:11:05;6.78;;;2.63;;
62990;SDS011;49084;48.204;16.202;2022-08-19T00:13:32;6.13;;;2.38;;
62990;SDS011;49084;48.204;16.202;2022-08-19T00:15:58;6.72;;;2.30;;
62990;SDS011;49084;48.204;16.202;2022-08-19T00:18:24;8.27;;;2.40;;
62990;SDS011;49084;48.204;16.202;2022-08-19T00:20:50;8.13;;;3.53;;
62990;SDS011;49084;48.204;16.202;2022-08-19T00:23:16;4.88;;;2.65;;
62990;SDS011;49084;48.204;16.202;2022-08-19T00:25:42;9.90;;;2.45;;
62990;SDS011;49084;48.204;16.202;2022-08-19T00:28:08;9.57;;;3.00;;
62990;SDS011;49084;48.204;16.202;2022-08-19T00:30:33;4.90;;;2.40;;
62990;SDS011;49084;48.204;16.202;2022-08-19T00:32:59;8.13;;;2.97;;
62990;SDS011;49084;48.204;16.202;2022-08-19T00:35:25;5.07;;;2.67;;
62990;SDS011;49084;48.204;16.202;2022-08-19T00:37:52;6.38;;;2.40;;
62990;SDS011;49084;48.204;16.202;2022-08-19T00:40:18;5.60;;;2.25;;
62990;SDS011;49084;48.204;16.202;2022-08-19T00:42:44;5.82;;;2.33;;
62990;SDS011;49084;48.204;16.202;2022-08-19T00:45:11;8.88;;;2.80;;
62990;SDS011;49084;48.204;16.202;2022-08-19T00:47:43;8.57;;;2.22;;
62990;SDS011;49084;48.204;16.202;2022-08-19T00:50:10;6.90;;;2.78;;
62990;SDS011;49084;48.204;16.202;2022-08-19T00:52:40;10.23;;;3.13;;
62990;SDS011;49084;48.204;16.202;2022-08-19T00:55:10;5.93;;;2.40;;
62990;SDS011;49084;48.204;16.202;2022-08-19T00:57:41;5.95;;;2.63;;
62990;SDS011;49084;48.204;16.202;2022-08-19T01:00:12;7.03;;;2.58;;
62990;SDS011;49084;48.204;16.202;2022-08-19T01:02:40;6.75;;;2.95;;
62990;SDS011;49084;48.204;16.202;2022-08-19T01:05:17;7.40;;;2.40;;
62990;SDS011;49084;48.204;16.202;2022-08-19T01:07:49;5.03;;;2.47;;
62990;SDS011;49084;48.204;16.202;2022-08-19T01:10:16;6.90;;;3.00;;
62990;SDS011;49084;48.204;16.202;2022-08-19T01:12:45;6.63;;;3.25;;
62990;SDS011;49084;48.204;16.202;2022-08-19T01:15:13;15.32;;;3.88;;
62990;SDS011;49084;48.204;16.202;2022-08-19T01:17:41;5.00;;;2.25;;
62990;SDS011;49084;48.204;16.202;2022-08-19T01:20:14;6.18;;;2.50;;
62990;SDS011;49084;48.204;16.202;2022-08-19T01:22:48;9.10;;;2.78;;
62990;SDS011;49084;48.204;16.202;2022-08-19T01:25:17;11.80;;;3.40;;
62990;SDS011;49084;48.204;16.202;2022-08-19T01:27:46;7.35;;;2.70;;
62990;SDS011;49084;48.204;16.202;2022-08-19T01:30:15;10.23;;;2.50;;
62990;SDS011;49084;48.204;16.202;2022-08-19T01:32:43;9.77;;;3.53;;
62990;SDS011;49084;48.204;16.202;2022-08-19T01:35:10;7.45;;;2.90;;
62990;SDS011;49084;48.204;16.202;2022-08-19T01:40:33;13.18;;;2.95;;
62990;SDS011;49084;48.204;16.202;2022-08-19T01:43:01;17.33;;;3.78;;
62990;SDS011;49084;48.204;16.202;2022-08-19T01:45:28;6.32;;;2.65;;
62990;SDS011;49084;48.204;16.202;2022-08-19T01:47:56;6.78;;;3.13;;
62990;SDS011;49084;48.204;16.202;2022-08-19T01:50:22;7.20;;;2.60;;
62990;SDS011;49084;48.204;16.202;2022-08-19T01:52:48;17.17;;;5.00;;
62990;SDS011;49084;48.204;16.202;2022-08-19T01:55:15;8.40;;;3.25;;
62990;SDS011;49084;48.204;16.202;2022-08-19T01:57:44;11.73;;;3.05;;
62990;SDS011;49084;48.204;16.202;2022-08-19T02:00:17;12.57;;;3.30;;
62990;SDS011;49084;48.204;16.202;2022-08-19T02:02:44;5.43;;;3.10;;
62990;SDS011;49084;48.204;16.202;2022-08-19T02:05:10;8.35;;;2.42;;
62990;SDS011;49084;48.204;16.202;2022-08-19T02:07:37;10.75;;;2.42;;
62990;SDS011;49084;48.204;16.202;2022-08-19T02:10:04;8.32;;;3.10;;
62990;SDS011;49084;48.204;16.202;2022-08-19T02:12:33;12.23;;;4.00;;
62990;SDS011;49084;48.204;16.202;2022-08-19T02:14:59;6.35;;;2.60;;
62990;SDS011;49084;48.204;16.202;2022-08-19T02:17:25;5.72;;;2.42;;
62990;SDS011;49084;48.204;16.202;2022-08-19T02:19:53;6.38;;;3.10;;
62990;SDS011;49084;48.204;16.202;2022-08-19T02:22:20;4.22;;;2.15;;
62990;SDS011;49084;48.204;16.202;2022-08-19T02:24:45;7.93;;;2.85;;
62990;SDS011;49084;48.204;16.202;2022-08-19T02:27:12;14.90;;;3.00;;
62990;SDS011;49084;48.204;16.202;2022-08-19T02:29:38;9.18;;;3.00;;
62990;SDS011;49084;48.204;16.202;2022-08-19T02:32:04;12.10;;;2.90;;
62990;SDS011;49084;48.204;16.202;2022-08-19T02:34:30;4.95;;;2.75;;
62990;SDS011;49084;48.204;16.202;2022-08-19T02:36:55;13.75;;;3.38;;
62990;SDS011;49084;48.204;16.202;2022-08-19T02:39:21;7.53;;;3.08;;
62990;SDS011;49084;48.204;16.202;2022-08-19T02:41:47;7.90;;;2.97;;
62990;SDS011;49084;48.204;16.202;2022-08-19T02:44:13;5.93;;;3.00;;
62990;SDS011;49084;48.204;16.202;2022-08-19T02:46:39;10.82;;;3.17;;
62990;SDS011;49084;48.204;16.202;2022-08-19T02:49:05;4.18;;;2.95;;
62990;SDS011;49084;48.204;16.202;2022-08-19T02:51:36;9.68;;;3.30;;
62990;SDS011;49084;48.204;16.202;2022-08-19T02:54:05;8.90;;;3.28;;
62990;SDS011;49084;48.204;16.202;2022-08-19T02:56:36;7.33;;;3.30;;
62990;SDS011;49084;48.204;16.202;2022-08-19T02:59:03;9.45;;;3.22;;
62990;SDS011;49084;48.204;16.202;2022-08-19T03:01:36;7.60;;;3.10;;
62990;SDS011;49084;48.204;16.202;2022-08-19T03:04:06;9.07;;;3.38;;
62990;SDS011;49084;48.204;16.202;2022-08-19T03:06:34;5.80;;;2.90;;
62990;SDS011;49084;48.204;16.202;2022-08-19T03:09:02;9.35;;;3.22;;
62990;SDS011;49084;48.204;16.202;2022-08-19T03:11:29;9.50;;;3.20;;
62990;SDS011;49084;48.204;16.202;2022-08-19T03:13:56;12.20;;;3.63;;
62990;SDS011;49084;48.204;16.202;2022-08-19T03:16:24;12.40;;;3.40;;
62990;SDS011;49084;48.204;16.202;2022-08-19T03:18:51;10.75;;;3.22;;
62990;SDS011;49084;48.204;16.202;2022-08-19T03:21:22;9.15;;;3.20;;
62990;SDS011;49084;48.204;16.202;2022-08-19T03:23:50;6.18;;;2.97;;
62990;SDS011;49084;48.204;16.202;2022-08-19T03:28:44;11.95;;;3.30;;
62990;SDS011;49084;48.204;16.202;2022-08-19T03:31:15;9.60;;;2.85;;
62990;SDS011;49084;48.204;16.202;2022-08-19T03:33:42;9.10;;;4.80;;
62990;SDS011;49084;48.204;16.202;2022-08-19T03:36:13;10.48;;;3.50;;
62990;SDS011;49084;48.204;16.202;2022-08-19T03:38:48;8.15;;;4.00;;
62990;SDS011;49084;48.204;16.202;2022-08-19T03:41:17;7.60;;;3.85;;
62990;SDS011;49084;48.204;16.202;2022-08-19T03:43:46;6.35;;;3.50;;
62990;SDS011;49084;48.204;16.202;2022-08-19T03:46:13;7.53;;;3.45;;
62990;SDS011;49084;48.204;16.202;2022-08-19T03:48:45;10.45;;;3.95;;
62990;SDS011;49084;48.204;16.202;2022-08-19T03:51:16;7.18;;;3.97;;
62990;SDS011;49084;48.204;16.202;2022-08-19T03:53:44;15.38;;;4.95;;
62990;SDS011;49084;48.204;16.202;2022-08-19T03:56:12;7.97;;;4.10;;
62990;SDS011;49084;48.204;16.202;2022-08-19T03:58:39;7.07;;;4.13;;
62990;SDS011;49084;48.204;16.202;2022-08-19T04:01:09;10.60;;;4.63;;
62990;SDS011;49084;48.204;16.202;2022-08-19T04:03:37;8.77;;;4.22;;
62990;SDS011;49084;48.204;16.202;2022-08-19T04:06:13;7.90;;;3.80;;
62990;SDS011;49084;48.204;16.202;2022-08-19T04:08:41;5.55;;;3.05;;
62990;SDS011;49084;48.204;16.202;2022-08-19T04:11:08;6.18;;;3.45;;
62990;SDS011;49084;48.204;16.202;2022-08-19T04:13:35;7.97;;;3.92;;
62990;SDS011;49084;48.204;16.202;2022-08-19T04:16:04;6.63;;;3.33;;
62990;SDS011;49084;48.204;16.202;2022-08-19T04:18:30;5.40;;;4.03;;
62990;SDS011;49084;48.204;16.202;2022-08-19T04:20:57;8.88;;;4.00;;
62990;SDS011;49084;48.204;16.202;2022-08-19T04:23:24;10.82;;;4.28;;
62990;SDS011;49084;48.204;16.202;2022-08-19T04:25:50;9.98;;;4.68;;
62990;SDS011;49084;48.204;16.202;2022-08-19T04:28:15;7.95;;;3.78;;
62990;SDS011;49084;48.204;16.202;2022-08-19T04:30:42;6.90;;;4.03;;
62990;SDS011;49084;48.204;16.202;2022-08-19T04:33:10;8.90;;;4.07;;
62990;SDS011;49084;48.204;16.202;2022-08-19T04:35:39;13.40;;;4.72;;
62990;SDS011;49084;48.204;16.202;2022-08-19T04:40:33;7.03;;;4.18;;
62990;SDS011;49084;48.204;16.202;2022-08-19T04:43:17;6.07;;;4.20;;
62990;SDS011;49084;48.204;16.202;2022-08-19T04:45:44;10.80;;;3.90;;
62990;SDS011;49084;48.204;16.202;2022-08-19T04:48:11;10.50;;;4.32;;
62990;SDS011;49084;48.204;16.202;2022-08-19T04:50:41;8.32;;;4.05;;
62990;SDS011;49084;48.204;16.202;2022-08-19T04:53:07;8.38;;;4.07;;
62990;SDS011;49084;48.204;16.202;2022-08-19T04:55:33;13.02;;;4.15;;
62990;SDS011;49084;48.204;16.202;2022-08-19T04:58:00;10.82;;;4.25;;
62990;SDS011;49084;48.204;16.202;2022-08-19T05:00:27;10.00;;;4.97;;
62990;SDS011;49084;48.204;16.202;2022-08-19T05:02:52;8.27;;;4.18;;
62990;SDS011;49084;48.204;16.202;2022-08-19T05:05:18;11.10;;;4.65;;
62990;SDS011;49084;48.204;16.202;2022-08-19T05:07:44;11.10;;;4.55;;
62990;SDS011;49084;48.204;16.202;2022-08-19T05:10:10;10.13;;;4.72;;
62990;SDS011;49084;48.204;16.202;2022-08-19T05:12:36;7.85;;;4.13;;
62990;SDS011;49084;48.204;16.202;2022-08-19T05:15:03;9.63;;;3.88;;
62990;SDS011;49084;48.204;16.202;2022-08-19T05:17:30;10.00;;;4.88;;
62990;SDS011;49084;48.204;16.202;2022-08-19T05:19:56;13.18;;;5.55;;
62990;SDS011;49084;48.204;16.202;2022-08-19T05:22:42;12.80;;;4.78;;
62990;SDS011;49084;48.204;16.202;2022-08-19T05:25:10;14.45;;;5.10;;
62990;SDS011;49084;48.204;16.202;2022-08-19T05:27:37;12.30;;;6.93;;
62990;SDS011;49084;48.204;16.202;2022-08-19T05:30:04;11.95;;;5.55;;
62990;SDS011;49084;48.204;16.202;2022-08-19T05:32:30;13.88;;;7.43;;
62990;SDS011;49084;48.204;16.202;2022-08-19T05:34:56;10.20;;;7.10;;
62990;SDS011;49084;48.204;16.202;2022-08-19T05:37:22;10.05;;;6.95;;
62990;SDS011;49084;48.204;16.202;2022-08-19T05:39:48;11.82;;;7.32;;
62990;SDS011;49084;48.204;16.202;2022-08-19T05:42:14;10.57;;;7.40;;
62990;SDS011;49084;48.204;16.202;2022-08-19T05:44:41;14.68;;;8.27;;
62990;SDS011;49084;48.204;16.202;2022-08-19T05:47:13;11.77;;;9.00;;
62990;SDS011;49084;48.204;16.202;2022-08-19T05:49:39;13.15;;;8.27;;
62990;SDS011;49084;48.204;16.202;2022-08-19T05:52:07;13.30;;;7.68;;
62990;SDS011;49084;48.204;16.202;2022-08-19T05:54:36;12.27;;;8.13;;
62990;SDS011;49084;48.204;16.202;2022-08-19T05:57:05;11.70;;;7.70;;
62990;SDS011;49084;48.204;16.202;2022-08-19T05:59:31;12.80;;;7.68;;
62990;SDS011;49084;48.204;16.202;2022-08-19T06:01:58;11.27;;;7.68;;
62990;SDS011;49084;48.204;16.202;2022-08-19T06:04:25;11.13;;;8.82;;
62990;SDS011;49084;48.204;16.202;2022-08-19T06:06:52;11.73;;;7.82;;
62990;SDS011;49084;48.204;16.202;2022-08-19T06:09:18;9.32;;;7.75;;
62990;SDS011;49084;48.204;16.202;2022-08-19T06:11:46;11.60;;;8.38;;
62990;SDS011;49084;48.204;16.202;2022-08-19T06:16:42;10.98;;;7.80;;
62990;SDS011;49084;48.204;16.202;2022-08-19T06:19:09;11.40;;;8.63;;
62990;SDS011;49084;48.204;16.202;2022-08-19T06:21:41;11.85;;;8.18;;
62990;SDS011;49084;48.204;16.202;2022-08-19T06:26:37;12.27;;;6.65;;
62990;SDS011;49084;48.204;16.202;2022-08-19T06:29:05;9.63;;;7.28;;
62990;SDS011;49084;48.204;16.202;2022-08-19T06:31:32;8.05;;;6.90;;
62990;SDS011;49084;48.204;16.202;2022-08-19T06:34:00;10.40;;;7.18;;
62990;SDS011;49084;48.204;16.202;2022-08-19T06:36:34;11.13;;;7.35;;
62990;SDS011;49084;48.204;16.202;2022-08-19T06:39:05;10.57;;;8.10;;
62990;SDS011;49084;48.204;16.202;2022-08-19T06:41:34;10.20;;;6.95;;
62990;SDS011;49084;48.204;16.202;2022-08-19T06:44:02;12.55;;;7.95;;
62990;SDS011;49084;48.204;16.202;2022-08-19T06:46:28;11.43;;;7.20;;
62990;SDS011;49084;48.204;16.202;2022-08-19T06:48:53;9.80;;;7.28;;
62990;SDS011;49084;48.204;16.202;2022-08-19T06:51:20;16.75;;;9.00;;
62990;SDS011;49084;48.204;16.202;2022-08-19T06:53:47;12.30;;;8.05;;
62990;SDS011;49084;48.204;16.202;2022-08-19T06:56:14;11.50;;;7.03;;
62990;SDS011;49084;48.204;16.202;2022-08-19T06:58:41;11.15;;;6.03;;
62990;SDS011;49084;48.204;16.202;2022-08-19T07:01:07;8.63;;;6.88;;
62990;SDS011;49084;48.204;16.202;2022-08-19T07:03:33;12.95;;;6.50;;
62990;SDS011;49084;48.204;16.202;2022-08-19T07:06:04;12.20;;;7.47;;
62990;SDS011;49084;48.204;16.202;2022-08-19T07:08:32;9.95;;;6.22;;
62990;SDS011;49084;48.204;16.202;2022-08-19T07:10:58;6.85;;;6.15;;
62990;SDS011;49084;48.204;16.202;2022-08-19T07:13:24;6.22;;;5.55;;
62990;SDS011;49084;48.204;16.202;2022-08-19T07:15:50;10.05;;;6.50;;
62990;SDS011;49084;48.204;16.202;2022-08-19T07:18:19;10.63;;;5.85;;
62990;SDS011;49084;48.204;16.202;2022-08-19T07:20:46;8.30;;;6.07;;
62990;SDS011;49084;48.204;16.202;2022-08-19T07:23:13;7.00;;;5.55;;
62990;SDS011;49084;48.204;16.202;2022-08-19T07:25:39;7.22;;;5.55;;
62990;SDS011;49084;48.204;16.202;2022-08-19T07:28:05;9.20;;;5.65;;
62990;SDS011;49084;48.204;16.202;2022-08-19T07:30:32;10.02;;;5.03;;
62990;SDS011;49084;48.204;16.202;2022-08-19T07:33:00;7.88;;;5.60;;
62990;SDS011;49084;48.204;16.202;2022-08-19T07:35:26;6.30;;;5.47;;
62990;SDS011;49084;48.204;16.202;2022-08-19T07:37:53;7.50;;;5.40;;
62990;SDS011;49084;48.204;16.202;2022-08-19T07:40:19;6.22;;;4.53;;
62990;SDS011;49084;48.204;16.202;2022-08-19T07:42:44;8.00;;;5.20;;
62990;SDS011;49084;48.204;16.202;2022-08-19T07:45:10;9.60;;;4.85;;
62990;SDS011;49084;48.204;16.202;2022-08-19T07:47:36;5.07;;;4.57;;
62990;SDS011;49084;48.204;16.202;2022-08-19T07:50:03;7.25;;;5.10;;
62990;SDS011;49084;48.204;16.202;2022-08-19T07:52:32;7.65;;;5.40;;
62990;SDS011;49084;48.204;16.202;2022-08-19T07:54:57;6.35;;;4.75;;
62990;SDS011;49084;48.204;16.202;2022-08-19T07:57:24;9.57;;;4.90;;
62990;SDS011;49084;48.204;16.202;2022-08-19T07:59:50;6.50;;;4.50;;
62990;SDS011;49084;48.204;16.202;2022-08-19T08:02:16;6.35;;;4.63;;
62990;SDS011;49084;48.204;16.202;2022-08-19T08:04:41;9.25;;;4.95;;
62990;SDS011;49084;48.204;16.202;2022-08-19T08:07:25;6.55;;;5.07;;
62990;SDS011;49084;48.204;16.202;2022-08-19T08:10:10;5.00;;;4.50;;
62990;SDS011;49084;48.204;16.202;2022-08-19T08:12:38;6.28;;;4.60;;
62990;SDS011;49084;48.204;16.202;2022-08-19T08:15:10;6.53;;;4.30;;
62990;SDS011;49084;48.204;16.202;2022-08-19T08:17:41;5.97;;;4.30;;
62990;SDS011;49084;48.204;16.202;2022-08-19T08:20:07;9.65;;;5.95;;
62990;SDS011;49084;48.204;16.202;2022-08-19T08:22:33;9.32;;;5.03;;
62990;SDS011;49084;48.204;16.202;2022-08-19T08:25:19;9.77;;;4.00;;
62990;SDS011;49084;48.204;16.202;2022-08-19T08:27:47;5.32;;;4.10;;
62990;SDS011;49084;48.204;16.202;2022-08-19T08:30:24;9.77;;;4.32;;
62990;SDS011;49084;48.204;16.202;2022-08-19T08:32:52;4.88;;;3.95;;
62990;SDS011;49084;48.204;16.202;2022-08-19T08:35:19;4.65;;;4.20;;
62990;SDS011;49084;48.204;16.202;2022-08-19T08:37:46;5.43;;;4.45;;
62990;SDS011;49084;48.204;16.202;2022-08-19T08:46:03;4.57;;;3.88;;
62990;SDS011;49084;48.204;16.202;2022-08-19T08:51:24;4.38;;;3.97;;
62990;SDS011;49084;48.204;16.202;2022-08-19T08:56:24;6.53;;;3.92;;
62990;SDS011;49084;48.204;16.202;2022-08-19T08:58:57;5.10;;;4.35;;
62990;SDS011;49084;48.204;16.202;2022-08-19T09:01:24;7.88;;;4.13;;
62990;SDS011;49084;48.204;16.202;2022-08-19T09:03:51;6.50;;;4.50;;
62990;SDS011;49084;48.204;16.202;2022-08-19T09:16:51;4.35;;;3.95;;
62990;SDS011;49084;48.204;16.202;2022-08-19T09:19:17;4.45;;;4.05;;
62990;SDS011;49084;48.204;16.202;2022-08-19T09:21:43;4.93;;;3.95;;
62990;SDS011;49084;48.204;16.202;2022-08-19T09:24:10;4.50;;;4.10;;
62990;SDS011;49084;48.204;16.202;2022-08-19T09:26:36;4.22;;;3.80;;
62990;SDS011;49084;48.204;16.202;2022-08-19T09:29:02;4.40;;;3.95;;
62990;SDS011;49084;48.204;16.202;2022-08-19T09:31:30;5.72;;;3.85;;
62990;SDS011;49084;48.204;16.202;2022-08-19T09:33:57;5.35;;;4.15;;
62990;SDS011;49084;48.204;16.202;2022-08-19T09:36:25;4.07;;;3.78;;
62990;SDS011;49084;48.204;16.202;2022-08-19T09:38:54;4.53;;;3.20;;
62990;SDS011;49084;48.204;16.202;2022-08-19T09:41:21;4.82;;;3.63;;
62990;SDS011;49084;48.204;16.202;2022-08-19T09:43:49;4.78;;;3.60;;
62990;SDS011;49084;48.204;16.202;2022-08-19T09:46:17;6.55;;;3.88;;
62990;SDS011;49084;48.204;16.202;2022-08-19T09:48:45;6.78;;;3.92;;
62990;SDS011;49084;48.204;16.202;2022-08-19T09:51:14;3.15;;;2.92;;
62990;SDS011;49084;48.204;16.202;2022-08-19T09:53:45;6.22;;;3.78;;
62990;SDS011;49084;48.204;16.202;2022-08-19T09:56:12;20.63;;;3.97;;
62990;SDS011;49084;48.204;16.202;2022-08-19T09:58:39;5.00;;;3.58;;
62990;SDS011;49084;48.204;16.202;2022-08-19T10:01:06;6.03;;;3.45;;
62990;SDS011;49084;48.204;16.202;2022-08-19T10:03:33;6.20;;;3.80;;
62990;SDS011;49084;48.204;16.202;2022-08-19T10:06:01;4.53;;;3.47;;
62990;SDS011;49084;48.204;16.202;2022-08-19T10:08:30;7.03;;;3.50;;
62990;SDS011;49084;48.204;16.202;2022-08-19T10:10:58;5.00;;;3.60;;
62990;SDS011;49084;48.204;16.202;2022-08-19T10:13:25;6.15;;;3.55;;
62990;SDS011;49084;48.204;16.202;2022-08-19T10:15:54;4.47;;;3.55;;
62990;SDS011;49084;48.204;16.202;2022-08-19T10:18:23;7.95;;;3.60;;
62990;SDS011;49084;48.204;16.202;2022-08-19T10:20:50;8.95;;;3.40;;
62990;SDS011;49084;48.204;16.202;2022-08-19T10:23:20;7.68;;;3.13;;
62990;SDS011;49084;48.204;16.202;2022-08-19T10:25:46;4.15;;;3.70;;
62990;SDS011;49084;48.204;16.202;2022-08-19T10:28:12;9.32;;;4.35;;
62990;SDS011;49084;48.204;16.202;2022-08-19T10:30:38;11.68;;;4.05;;
62990;SDS011;49084;48.204;16.202;2022-08-19T10:33:05;18.67;;;3.85;;
62990;SDS011;49084;48.204;16.202;2022-08-19T10:35:31;5.93;;;3.50;;
62990;SDS011;49084;48.204;16.202;2022-08-19T10:37:56;7.68;;;3.50;;
62990;SDS011;49084;48.204;16.202;2022-08-19T10:40:24;8.27;;;3.65;;
62990;SDS011;49084;48.204;16.202;2022-08-19T10:42:51;6.72;;;3.20;;
62990;SDS011;49084;48.204;16.202;2022-08-19T10:45:17;10.32;;;3.70;;
62990;SDS011;49084;48.204;16.202;2022-08-19T10:47:43;7.90;;;3.20;;
62990;SDS011;49084;48.204;16.202;2022-08-19T10:50:09;8.48;;;3.60;;
62990;SDS011;49084;48.204;16.202;2022-08-19T10:52:53;4.75;;;3.20;;
62990;SDS011;49084;48.204;16.202;2022-08-19T10:55:20;8.93;;;3.90;;
62990;SDS011;49084;48.204;16.202;2022-08-19T10:58:17;9.95;;;3.95;;
62990;SDS011;49084;48.204;16.202;2022-08-19T11:00:51;7.80;;;4.03;;
62990;SDS011;49084;48.204;16.202;2022-08-19T11:03:18;7.80;;;3.50;;
62990;SDS011;49084;48.204;16.202;2022-08-19T11:05:44;7.40;;;3.97;;
62990;SDS011;49084;48.204;16.202;2022-08-19T11:08:09;9.38;;;3.70;;
62990;SDS011;49084;48.204;16.202;2022-08-19T11:10:36;8.20;;;4.03;;
62990;SDS011;49084;48.204;16.202;2022-08-19T11:13:06;8.27;;;3.50;;
62990;SDS011;49084;48.204;16.202;2022-08-19T11:15:31;9.00;;;3.63;;
62990;SDS011;49084;48.204;16.202;2022-08-19T11:17:58;6.47;;;3.50;;
62990;SDS011;49084;48.204;16.202;2022-08-19T11:20:24;9.90;;;3.83;;
62990;SDS011;49084;48.204;16.202;2022-08-19T11:22:50;8.75;;;3.28;;
62990;SDS011;49084;48.204;16.202;2022-08-19T11:25:18;11.55;;;3.65;;
62990;SDS011;49084;48.204;16.202;2022-08-19T11:27:44;11.77;;;4.13;;
62990;SDS011;49084;48.204;16.202;2022-08-19T11:30:11;10.25;;;4.45;;
62990;SDS011;49084;48.204;16.202;2022-08-19T11:32:38;9.02;;;3.75;;
62990;SDS011;49084;48.204;16.202;2022-08-19T11:35:06;11.07;;;3.65;;
62990;SDS011;49084;48.204;16.202;2022-08-19T11:37:32;10.63;;;3.00;;
62990;SDS011;49084;48.204;16.202;2022-08-19T11:40:02;11.77;;;4.47;;
62990;SDS011;49084;48.204;16.202;2022-08-19T11:42:28;8.88;;;3.80;;
62990;SDS011;49084;48.204;16.202;2022-08-19T11:45:12;10.02;;;3.53;;
62990;SDS011;49084;48.204;16.202;2022-08-19T11:47:38;11.27;;;3.33;;
62990;SDS011;49084;48.204;16.202;2022-08-19T11:50:04;8.40;;;3.38;;
62990;SDS011;49084;48.204;16.202;2022-08-19T11:52:30;9.50;;;2.92;;
62990;SDS011;49084;48.204;16.202;2022-08-19T11:54:56;10.00;;;3.50;;
62990;SDS011;49084;48.204;16.202;2022-08-19T11:57:22;12.18;;;3.50;;
62990;SDS011;49084;48.204;16.202;2022-08-19T11:59:48;12.40;;;3.22;;
62990;SDS011;49084;48.204;16.202;2022-08-19T12:02:15;8.02;;;3.63;;
62990;SDS011;49084;48.204;16.202;2022-08-19T12:04:40;13.05;;;3.92;;
62990;SDS011;49084;48.204;16.202;2022-08-19T12:07:06;11.05;;;3.25;;
62990;SDS011;49084;48.204;16.202;2022-08-19T12:09:32;8.15;;;2.97;;
62990;SDS011;49084;48.204;16.202;2022-08-19T12:11:59;11.23;;;3.55;;
62990;SDS011;49084;48.204;16.202;2022-08-19T12:14:26;10.65;;;3.53;;
62990;SDS011;49084;48.204;16.202;2022-08-19T12:16:54;12.25;;;2.95;;
62990;SDS011;49084;48.204;16.202;2022-08-19T12:19:20;11.05;;;3.30;;
62990;SDS011;49084;48.204;16.202;2022-08-19T12:21:46;11.25;;;2.75;;
62990;SDS011;49084;48.204;16.202;2022-08-19T12:24:12;8.77;;;2.58;;
62990;SDS011;49084;48.204;16.202;2022-08-19T12:26:38;12.48;;;3.10;;
62990;SDS011;49084;48.204;16.202;2022-08-19T12:29:04;15.32;;;3.55;;
62990;SDS011;49084;48.204;16.202;2022-08-19T12:31:30;13.23;;;3.25;;
62990;SDS011;49084;48.204;16.202;2022-08-19T12:33:56;14.38;;;3.08;;
62990;SDS011;49084;48.204;16.202;2022-08-19T12:36:22;12.13;;;3.10;;
62990;SDS011;49084;48.204;16.202;2022-08-19T12:38:49;16.90;;;4.30;;
62990;SDS011;49084;48.204;16.202;2022-08-19T12:41:15;13.48;;;3.28;;
62990;SDS011;49084;48.204;16.202;2022-08-19T12:43:43;20.13;;;3.60;;
62990;SDS011;49084;48.204;16.202;2022-08-19T12:46:10;17.70;;;3.70;;
62990;SDS011;49084;48.204;16.202;2022-08-19T12:48:36;16.75;;;3.40;;
62990;SDS011;49084;48.204;16.202;2022-08-19T12:51:08;12.80;;;3.07;;
62990;SDS011;49084;48.204;16.202;2022-08-19T12:53:37;14.45;;;3.53;;
62990;SDS011;49084;48.204;16.202;2022-08-19T12:56:03;15.50;;;3.95;;
62990;SDS011;49084;48.204;16.202;2022-08-19T12:58:30;15.20;;;3.00;;
62990;SDS011;49084;48.204;16.202;2022-08-19T13:00:56;13.65;;;3.83;;
62990;SDS011;49084;48.204;16.202;2022-08-19T13:03:21;13.15;;;2.80;;
62990;SDS011;49084;48.204;16.202;2022-08-19T13:05:52;15.00;;;3.67;;
62990;SDS011;49084;48.204;16.202;2022-08-19T13:08:18;14.70;;;3.47;;
62990;SDS011;49084;48.204;16.202;2022-08-19T13:10:43;13.35;;;3.47;;
62990;SDS011;49084;48.204;16.202;2022-08-19T13:13:09;16.63;;;4.43;;
62990;SDS011;49084;48.204;16.202;2022-08-19T13:15:37;11.10;;;3.75;;
62990;SDS011;49084;48.204;16.202;2022-08-19T13:18:05;14.05;;;3.60;;
62990;SDS011;49084;48.204;16.202;2022-08-19T13:20:32;13.95;;;3.67;;
62990;SDS011;49084;48.204;16.202;2022-08-19T13:22:58;16.63;;;4.25;;
62990;SDS011;49084;48.204;16.202;2022-08-19T13:25:24;15.00;;;3.55;;
62990;SDS011;49084;48.204;16.202;2022-08-19T13:27:50;15.50;;;3.17;;
62990;SDS011;49084;48.204;16.202;2022-08-19T13:30:17;14.35;;;3.38;;
62990;SDS011;49084;48.204;16.202;2022-08-19T13:33:02;16.23;;;3.40;;
62990;SDS011;49084;48.204;16.202;2022-08-19T13:38:13;12.50;;;3.05;;
62990;SDS011;49084;48.204;16.202;2022-08-19T13:40:40;9.82;;;3.20;;
62990;SDS011;49084;48.204;16.202;2022-08-19T13:43:06;17.20;;;4.05;;
62990;SDS011;49084;48.204;16.202;2022-08-19T13:45:34;14.68;;;3.47;;
62990;SDS011;49084;48.204;16.202;2022-08-19T13:48:00;6.78;;;2.95;;
62990;SDS011;49084;48.204;16.202;2022-08-19T13:50:31;13.18;;;3.15;;
62990;SDS011;49084;48.204;16.202;2022-08-19T13:52:58;12.45;;;2.75;;
62990;SDS011;49084;48.204;16.202;2022-08-19T13:55:25;15.50;;;3.25;;
62990;SDS011;49084;48.204;16.202;2022-08-19T13:57:56;11.80;;;3.30;;
62990;SDS011;49084;48.204;16.202;2022-08-19T14:00:24;12.52;;;2.83;;
62990;SDS011;49084;48.204;16.202;2022-08-19T14:02:51;11.27;;;2.90;;
62990;SDS011;49084;48.204;16.202;2022-08-19T14:05:19;14.68;;;3.33;;
62990;SDS011;49084;48.204;16.202;2022-08-19T14:07:45;16.67;;;3.70;;
62990;SDS011;49084;48.204;16.202;2022-08-19T14:10:13;14.77;;;3.47;;
62990;SDS011;49084;48.204;16.202;2022-08-19T14:12:40;12.85;;;3.38;;
62990;SDS011;49084;48.204;16.202;2022-08-19T14:15:06;18.33;;;3.75;;
62990;SDS011;49084;48.204;16.202;2022-08-19T14:17:34;14.47;;;3.50;;
62990;SDS011;49084;48.204;16.202;2022-08-19T14:20:03;14.57;;;4.43;;
62990;SDS011;49084;48.204;16.202;2022-08-19T14:22:39;14.63;;;3.30;;
62990;SDS011;49084;48.204;16.202;2022-08-19T14:25:06;13.60;;;3.13;;
62990;SDS011;49084;48.204;16.202;2022-08-19T14:27:34;13.90;;;3.10;;
62990;SDS011;49084;48.204;16.202;2022-08-19T14:30:02;13.30;;;2.95;;
62990;SDS011;49084;48.204;16.202;2022-08-19T14:32:28;15.68;;;2.85;;
62990;SDS011;49084;48.204;16.202;2022-08-19T14:34:54;7.53;;;2.33;;
62990;SDS011;49084;48.204;16.202;2022-08-19T14:37:20;11.05;;;2.17;;
62990;SDS011;49084;48.204;16.202;2022-08-19T14:39:47;7.63;;;2.10;;
62990;SDS011;49084;48.204;16.202;2022-08-19T14:42:12;10.38;;;2.85;;
62990;SDS011;49084;48.204;16.202;2022-08-19T14:47:07;6.78;;;2.17;;
62990;SDS011;49084;48.204;16.202;2022-08-19T14:49:33;15.95;;;2.95;;
62990;SDS011;49084;48.204;16.202;2022-08-19T14:51:59;8.60;;;2.28;;
62990;SDS011;49084;48.204;16.202;2022-08-19T14:54:25;12.60;;;2.03;;
62990;SDS011;49084;48.204;16.202;2022-08-19T14:56:51;4.60;;;1.88;;
62990;SDS011;49084;48.204;16.202;2022-08-19T14:59:16;13.93;;;2.15;;
62990;SDS011;49084;48.204;16.202;2022-08-19T15:01:43;8.88;;;2.08;;
62990;SDS011;49084;48.204;16.202;2022-08-19T15:04:08;5.82;;;1.77;;
62990;SDS011;49084;48.204;16.202;2022-08-19T15:06:34;15.30;;;1.88;;
62990;SDS011;49084;48.204;16.202;2022-08-19T15:09:00;11.15;;;2.00;;
62990;SDS011;49084;48.204;16.202;2022-08-19T15:11:27;6.15;;;1.80;;